Flight Track Log - Related Links

Times and Time Zones

All times are in EDT time to prevent confusion due to time zone crossing. See the N9484P flight status page for this flight to view local times or setup timezone preferences in your user account.

Time Position Orientation Groundspeed Altitude Reporting Facility
EDT Latitude Longitude Course Direction KTS MPH feet Rate Location/Type
Wed 03:44:11 PM 39.8500 -86.2833 90° East 100 115 1,200  Level Indianapolis TRACON
Wed 03:44:41 PM 39.8500 -86.2667 90° East 100 115 1,600 867 Climbing Indianapolis TRACON
Wed 03:45:41 PM 39.8667 -86.2833 322° Northwest 92 106 2,500 913 Climbing Indianapolis TRACON
Wed 03:46:13 PM 39.8689 -86.3025 279° West 101 116 3,000 702 Climbing Indianapolis Center
Wed 03:47:15 PM 39.8639 -86.3358 259° West 97 112 3,600 435 Climbing Indianapolis Center
Wed 03:48:17 PM 39.8597 -86.3800 263° West 101 116 3,900 532 Climbing Indianapolis Center
Wed 03:49:19 PM 39.8558 -86.4244 264° West 118 136 4,700 774 Climbing Indianapolis Center
Wed 03:50:21 PM 39.8481 -86.4586 253° West 110 127 5,500 629 Climbing Indianapolis Center
Wed 03:51:23 PM 39.8369 -86.4922 247° West 107 123 6,000 242 Climbing Indianapolis Center
Wed 03:52:25 PM 39.7928 -86.4786 167° South 149 171 6,000  Level Indianapolis Center
Wed 03:53:27 PM 39.7375 -86.4503 158° South 176 203 6,000  Level Indianapolis Center
Wed 03:54:29 PM 39.6914 -86.4256 158° South 180 207 6,000  Level Indianapolis Center
Wed 03:55:31 PM 39.6453 -86.4036 160° South 180 207 6,000  Level Indianapolis Center
Wed 03:56:33 PM 39.6003 -86.3800 158° South 178 205 6,000  Level Indianapolis Center
Wed 03:57:35 PM 39.5456 -86.3519 158° South 177 204 6,000  Level Indianapolis Center
Wed 03:58:37 PM 39.4989 -86.3289 159° South 179 206 6,000  Level Indianapolis Center
Wed 03:59:40 PM 39.4533 -86.3053 158° South 177 204 6,000  Level Indianapolis Center
Wed 04:00:42 PM 39.4072 -86.2817 158° South 179 206 6,000  Level Indianapolis Center
Wed 04:01:44 PM 39.3611 -86.2594 160° South 178 205 6,000  Level Indianapolis Center
Wed 04:02:46 PM 39.3061 -86.2386 164° South 177 204 6,000 48 Level Indianapolis Center
Wed 04:03:48 PM 39.2589 -86.2344 176° South 172 198 6,100  Climbing Indianapolis Center
Wed 04:04:50 PM 39.2108 -86.2267 173° South 173 199 6,000 -48 Descending Indianapolis Center
Wed 04:05:52 PM 39.1703 -86.1892 144° Southeast 181 208 6,000  Level Indianapolis Center
Wed 04:06:54 PM 39.1292 -86.1556 148° Southeast 179 206 6,000  Level Indianapolis Center
Wed 04:07:56 PM 39.0861 -86.1214 148° Southeast 181 208 6,000 194 Level Indianapolis Center
Wed 04:08:58 PM 39.0328 -86.0922 157° South 178 205 6,400 435 Climbing Indianapolis Center
Wed 04:10:00 PM 38.9936 -86.0706 157° South 166 191 6,900 435 Climbing Indianapolis Center
Wed 04:11:02 PM 38.9547 -86.0508 158° South 157 181 7,300 435 Climbing Indianapolis Center
Wed 04:12:04 PM 38.9139 -86.0342 162° South 153 176 7,800 484 Climbing Indianapolis Center
Wed 04:13:06 PM 38.8722 -86.0128 158° South 157 181 8,300 435 Climbing Indianapolis Center
Wed 04:14:08 PM 38.8331 -85.9936 159° South 152 175 8,700 288 Climbing Indianapolis Center
Wed 04:15:11 PM 38.7828 -85.9672 158° South 159 183 8,900 144 Climbing Indianapolis Center
Wed 04:16:13 PM 38.7378 -85.9447 159° South 169 194 9,000 48 Climbing Indianapolis Center
Wed 04:17:15 PM 38.6914 -85.9214 159° South 176 203 9,000  Level Indianapolis Center
Wed 04:18:17 PM 38.6464 -85.8986 158° South 174 200 9,000 -48 Level Indianapolis Center
Wed 04:19:19 PM 38.6008 -85.8772 160° South 173 199 8,900 -48 Descending Indianapolis Center
Wed 04:20:21 PM 38.5564 -85.8536 157° South 172 198 8,900  Level Indianapolis Center
Wed 04:21:23 PM 38.5108 -85.8325 160° South 173 199 8,900  Level Indianapolis Center
Wed 04:22:25 PM 38.4578 -85.8056 158° South 171 197 8,900  Level Indianapolis Center
Wed 04:23:27 PM 38.4133 -85.7833 159° South 171 197 8,900  Level Indianapolis Center
Wed 04:24:29 PM 38.3689 -85.7611 159° South 171 197 8,900  Level Indianapolis Center
Wed 04:25:31 PM 38.3222 -85.7381 159° South 177 204 8,900  Level Indianapolis Center
Wed 04:26:33 PM 38.2758 -85.7150 159° South 178 205 8,900  Level Indianapolis Center
Wed 04:27:35 PM 38.2297 -85.6928 159° South 176 203 8,900  Level Indianapolis Center
Wed 04:28:37 PM 38.1833 -85.6719 161° South 176 203 8,900  Level Indianapolis Center
Wed 04:29:40 PM 38.1289 -85.6425 157° South 176 203 8,900  Level Indianapolis Center
Wed 04:30:42 PM 38.0822 -85.6214 160° South 175 201 8,900  Level Indianapolis Center
Wed 04:31:44 PM 38.0350 -85.5978 159° South 180 207 8,900  Level Indianapolis Center
Wed 04:32:46 PM 37.9881 -85.5747 159° South 180 207 8,900  Level Indianapolis Center
Wed 04:33:48 PM 37.9431 -85.5531 159° South 175 201 8,900  Level Indianapolis Center
Wed 04:34:50 PM 37.8964 -85.5308 159° South 176 203 8,900  Level Indianapolis Center
Wed 04:35:52 PM 37.8506 -85.5078 158° South 177 204 8,900  Level Indianapolis Center
Wed 04:36:54 PM 37.7975 -85.4831 160° South 176 203 8,900  Level Indianapolis Center
Wed 04:37:56 PM 37.7528 -85.4611 159° South 174 200 8,900  Level Indianapolis Center
Wed 04:38:58 PM 37.7075 -85.4386 159° South 174 200 8,900  Level Indianapolis Center
Wed 04:40:00 PM 37.6561 -85.4117 157° South 171 197 8,900  Level Indianapolis Center
Wed 04:41:02 PM 37.6106 -85.3919 161° South 172 198 8,900 -194 Level Indianapolis Center
Wed 04:42:04 PM 37.5639 -85.3694 159° South 178 205 8,500 -435 Descending Indianapolis Center
Wed 04:43:06 PM 37.5153 -85.3464 159° South 184 212 8,000 -484 Descending Indianapolis Center
Wed 04:44:08 PM 37.4686 -85.3233 159° South 179 206 7,500 -581 Descending Indianapolis Center
Wed 04:45:10 PM 37.4225 -85.3011 159° South 177 204 6,800 -672 Descending Indianapolis Center
Wed 04:46:13 PM 37.3689 -85.2753 159° South 177 204 6,100 -576 Descending Indianapolis Center
Wed 04:47:15 PM 37.3239 -85.2528 158° South 175 201 5,600 -484 Descending Indianapolis Center
Wed 04:48:17 PM 37.2811 -85.2317 159° South 169 194 5,100 -532 Descending Indianapolis Center
Wed 04:49:19 PM 37.2369 -85.2122 161° South 168 193 4,500 -581 Descending Indianapolis Center
Wed 04:50:21 PM 37.1917 -85.1906 159° South 171 197 3,900 -581 Descending Indianapolis Center

Login

Don't have an account? Register now (free) for customized features, flight alerts, and more!